createdAt,value
2022-07-26T00:05:29.301Z,99543.50
2022-07-26T00:09:32.408Z,99548.59
2022-07-26T00:13:35.293Z,99542.03
2022-07-26T00:17:43.756Z,99528.50
2022-07-26T00:23:22.005Z,99530.81
2022-07-26T00:27:10.214Z,99536.78
2022-07-26T00:31:34.221Z,99540.72
2022-07-26T00:35:43.340Z,99549.78
2022-07-26T00:39:45.282Z,99551.91
2022-07-26T00:44:05.647Z,99559.28
2022-07-26T00:48:09.015Z,99570.47
2022-07-26T00:52:19.745Z,99575.22
2022-07-26T00:56:26.537Z,99580.13
2022-07-26T01:01:12.750Z,99591.81
2022-07-26T01:27:15.268Z,99607.66
2022-07-26T01:31:23.490Z,99594.94
2022-07-26T01:35:34.524Z,99594.56
2022-07-26T01:39:42.164Z,99599.28
2022-07-26T01:43:46.762Z,99596.63
2022-07-26T01:47:50.422Z,99594.28
2022-07-26T01:51:52.121Z,99598.03
2022-07-26T01:55:54.046Z,99596.00
2022-07-26T01:59:56.803Z,99597.59
2022-07-26T02:03:58.519Z,99598.34
2022-07-26T02:08:02.908Z,99596.72
2022-07-26T02:12:07.616Z,99597.66
2022-07-26T02:16:13.581Z,99595.50
2022-07-26T02:20:17.206Z,99593.31
2022-07-26T06:42:09.016Z,99710.06
2022-07-26T06:46:11.259Z,99708.97
2022-07-26T06:50:12.922Z,99702.16
2022-07-26T06:54:16.675Z,99717.88
2022-07-26T06:58:18.261Z,99704.38
2022-07-26T07:02:20.621Z,99708.25
2022-07-26T07:06:22.755Z,99701.47
2022-07-26T07:10:24.507Z,99700.03
2022-07-26T07:14:27.024Z,99702.41
2022-07-26T07:18:30.422Z,99707.94
2022-07-26T07:22:32.598Z,99701.88
2022-07-26T07:26:35.561Z,99695.66
2022-07-26T07:30:38.646Z,99706.91
2022-07-26T07:34:49.786Z,99694.66
2022-07-26T07:39:05.954Z,99696.84
2022-07-26T07:43:08.219Z,99696.66
2022-07-26T07:47:10.294Z,99709.16
2022-07-26T07:51:14.241Z,99703.41
2022-07-26T07:55:36.786Z,99694.84
2022-07-26T07:59:42.854Z,99689.22
2022-07-26T08:03:52.054Z,99690.09
2022-07-26T08:08:05.505Z,99700.75
2022-07-26T08:12:11.167Z,99693.50
2022-07-26T08:16:13.813Z,99704.78
2022-07-26T08:20:16.204Z,99711.06
2022-07-26T08:24:17.816Z,99711.09
2022-07-26T08:28:38.143Z,99716.06
2022-07-26T08:32:42.712Z,99718.56
2022-07-26T08:37:14.137Z,99715.78
2022-07-26T08:41:08.480Z,99716.00
2022-07-26T08:45:11.665Z,99728.44
2022-07-26T08:49:15.244Z,99724.78
2022-07-26T08:53:19.629Z,99723.22
2022-07-26T08:57:22.646Z,99726.50
2022-07-26T09:01:24.705Z,99733.06
2022-07-26T09:05:37.133Z,99736.63
2022-07-26T09:09:58.342Z,99740.78
2022-07-26T09:14:02.627Z,99742.91
2022-07-26T09:18:04.682Z,99744.16
2022-07-26T09:22:12.424Z,99748.06
2022-07-26T09:26:20.343Z,99738.31
2022-07-26T09:30:22.645Z,99739.16
2022-07-26T09:34:26.372Z,99740.69
2022-07-26T09:38:45.942Z,99736.81
2022-07-26T09:43:00.069Z,99730.47
2022-07-26T09:47:01.811Z,99740.84
2022-07-26T09:51:03.582Z,99744.78
2022-07-26T09:55:08.532Z,99742.44
2022-07-26T09:59:10.479Z,99731.59
2022-07-26T10:03:12.736Z,99734.47
2022-07-26T10:07:17.120Z,99728.31
2022-07-26T10:11:21.158Z,99733.22
2022-07-26T10:15:36.343Z,99736.44
2022-07-26T10:19:41.682Z,99736.25
2022-07-26T10:23:59.044Z,99742.31
2022-07-26T10:28:01.878Z,99736.41
2022-07-26T10:32:16.099Z,99728.16
2022-07-26T10:36:25.413Z,99725.66
2022-07-26T10:40:32.476Z,99721.97
2022-07-26T10:44:43.962Z,99731.50
2022-07-26T10:49:07.740Z,99729.72
2022-07-26T10:53:16.632Z,99735.88
2022-07-26T10:57:19.315Z,99737.50
2022-07-26T11:01:21.473Z,99734.13
2022-07-26T11:05:35.037Z,99729.50
2022-07-26T11:09:55.011Z,99729.84
2022-07-26T11:14:12.962Z,99725.63
2022-07-26T11:18:28.310Z,99724.81
2022-07-26T11:22:36.002Z,99730.34
2022-07-26T11:26:44.097Z,99718.59
2022-07-26T11:31:03.642Z,99721.34
2022-07-26T11:35:06.785Z,99715.78
2022-07-26T11:39:14.205Z,99702.06
2022-07-26T11:47:34.936Z,99688.56
2022-07-26T11:51:37.167Z,99701.81
2022-07-26T11:55:40.844Z,99704.53
2022-07-26T11:59:48.845Z,99701.06
2022-07-26T12:03:58.632Z,99691.81
2022-07-26T12:08:07.310Z,99691.72
2022-07-26T12:12:19.708Z,99697.78
2022-07-26T12:16:37.092Z,99703.84
2022-07-26T12:21:04.430Z,99698.06
2022-07-26T12:25:08.320Z,99706.59
2022-07-26T12:29:25.066Z,99696.31
2022-07-26T12:33:27.001Z,99704.00
2022-07-26T12:37:39.453Z,99698.50
2022-07-26T12:41:41.974Z,99693.66
2022-07-26T12:45:44.732Z,99686.78
2022-07-26T12:49:48.951Z,99689.38
2022-07-26T12:53:50.672Z,99678.31
2022-07-26T12:57:55.771Z,99673.38
2022-07-26T13:01:59.747Z,99666.59
2022-07-26T13:14:55.187Z,99646.63
2022-07-26T13:19:17.507Z,99650.50
2022-07-26T13:23:22.104Z,99649.22
2022-07-26T13:27:35.938Z,99653.13
2022-07-26T13:31:39.296Z,99655.19
2022-07-26T13:35:42.680Z,99647.66
2022-07-26T13:39:44.492Z,99652.81
2022-07-26T13:43:46.090Z,99659.97
2022-07-26T13:47:48.795Z,99664.88
2022-07-26T13:51:59.879Z,99654.31
2022-07-26T13:56:03.146Z,99649.69
2022-07-26T14:00:05.832Z,99645.81
2022-07-26T14:04:09.880Z,99652.31
2022-07-26T14:08:12.170Z,99650.28
2022-07-26T14:12:26.624Z,99666.41
2022-07-26T14:16:28.360Z,99649.97
2022-07-26T14:20:30.031Z,99661.56
2022-07-26T14:24:32.802Z,99659.75
2022-07-26T14:28:35.994Z,99660.03
2022-07-26T14:32:40.046Z,99655.75
2022-07-26T14:36:43.006Z,99655.94
2022-07-26T14:40:44.638Z,99650.38
2022-07-26T14:44:46.725Z,99646.69
2022-07-26T14:48:54.561Z,99654.44
2022-07-26T14:52:56.739Z,99649.31
2022-07-26T14:56:58.506Z,99647.63
2022-07-26T15:01:00.686Z,99660.75
2022-07-26T15:05:02.776Z,99648.97
2022-07-26T15:09:05.379Z,99649.63
2022-07-26T15:13:07.665Z,99639.09
2022-07-26T15:17:10.871Z,99631.53
2022-07-26T15:21:15.051Z,99627.13
2022-07-26T15:25:17.738Z,99637.25
2022-07-26T15:29:19.414Z,99637.25
2022-07-26T15:33:21.365Z,99637.94
2022-07-26T15:37:23.456Z,99628.75
2022-07-26T15:41:26.309Z,99630.13
2022-07-26T15:45:28.155Z,99631.31
2022-07-26T15:49:31.893Z,99628.34
2022-07-26T15:53:35.659Z,99620.75
2022-07-26T15:57:38.437Z,99626.66
2022-07-26T16:01:41.377Z,99625.34
2022-07-26T16:05:43.090Z,99620.03
2022-07-26T16:09:44.785Z,99617.03
2022-07-26T16:13:46.390Z,99618.38
2022-07-26T16:17:48.045Z,99614.19
2022-07-26T16:21:49.829Z,99616.41
2022-07-26T16:25:53.367Z,99608.84
2022-07-26T16:29:55.536Z,99598.13
2022-07-26T16:33:58.522Z,99611.44
2022-07-26T16:38:01.222Z,99604.66
2022-07-26T16:42:06.805Z,99601.84
2022-07-26T16:46:09.030Z,99600.50
2022-07-26T16:50:13.256Z,99587.06
2022-07-26T16:54:26.955Z,99580.25
2022-07-26T16:58:28.594Z,99584.34
2022-07-26T17:02:31.188Z,99591.09
2022-07-26T17:06:32.851Z,99594.81
2022-07-26T17:10:36.015Z,99586.84
2022-07-26T17:14:37.720Z,99597.00
2022-07-26T17:18:39.383Z,99595.88
2022-07-26T17:22:41.332Z,99598.91
2022-07-26T17:26:43.269Z,99596.50
2022-07-26T17:30:47.956Z,99591.69
2022-07-26T17:34:49.710Z,99601.44
2022-07-26T17:38:52.621Z,99593.88
2022-07-26T17:42:56.437Z,99603.75
2022-07-26T17:46:59.811Z,99596.91
2022-07-26T17:51:01.708Z,99593.41
2022-07-26T17:55:09.019Z,99595.88
2022-07-26T17:59:13.505Z,99601.69
2022-07-26T18:03:15.706Z,99608.22
2022-07-26T18:07:19.724Z,99597.31
2022-07-26T18:11:21.343Z,99610.38
2022-07-26T18:15:23.788Z,99612.16
2022-07-26T18:19:26.994Z,99607.81
2022-07-26T18:23:28.695Z,99617.25
2022-07-26T18:27:31.857Z,99616.91
2022-07-26T18:31:34.535Z,99629.03
2022-07-26T18:35:37.854Z,99626.44
2022-07-26T18:39:57.990Z,99626.41
2022-07-26T18:44:00.002Z,99631.00
2022-07-26T18:48:01.645Z,99632.84
2022-07-26T18:52:08.690Z,99628.38
2022-07-26T18:56:14.926Z,99636.63
2022-07-26T19:00:19.127Z,99629.94
2022-07-26T19:04:21.940Z,99634.66
2022-07-26T19:12:44.090Z,99652.19
2022-07-26T19:16:46.553Z,99653.56
2022-07-26T19:20:50.383Z,99654.00
2022-07-26T19:24:52.555Z,99664.50
2022-07-26T19:28:57.766Z,99663.75
2022-07-26T19:32:59.730Z,99670.94
2022-07-26T19:37:02.196Z,99673.44
2022-07-26T19:41:04.442Z,99685.22
2022-07-26T19:45:06.542Z,99691.88
2022-07-26T19:49:14.848Z,99704.50
2022-07-26T20:14:21.859Z,99729.47
2022-07-26T20:23:09.140Z,99720.59
2022-07-26T20:27:26.845Z,99723.59
2022-07-26T20:31:28.592Z,99731.84
2022-07-26T20:35:31.861Z,99731.19
2022-07-26T20:39:36.955Z,99743.72
2022-07-26T20:43:40.501Z,99742.22
2022-07-26T20:47:43.812Z,99745.16
2022-07-26T20:51:45.555Z,99746.00
2022-07-26T20:55:48.317Z,99752.59
2022-07-26T20:59:50.075Z,99749.44
2022-07-26T21:03:51.878Z,99754.88
2022-07-26T21:07:59.075Z,99750.59
2022-07-26T21:12:01.770Z,99760.94
2022-07-26T21:16:04.218Z,99769.19
2022-07-26T21:20:14.167Z,99768.03
2022-07-26T21:24:16.606Z,99765.22
2022-07-26T21:28:23.960Z,99766.91
2022-07-26T21:32:52.065Z,99768.38
2022-07-26T21:36:59.053Z,99770.66
2022-07-26T21:41:00.965Z,99765.72
2022-07-26T21:45:03.012Z,99776.91
2022-07-26T21:49:07.419Z,99772.94
2022-07-26T21:53:09.243Z,99776.84
2022-07-26T21:57:11.088Z,99788.06
2022-07-26T22:01:12.945Z,99789.91
2022-07-26T22:05:33.397Z,99786.78
2022-07-26T22:09:35.141Z,99788.63
2022-07-26T22:13:56.669Z,99789.13
2022-07-26T22:18:16.201Z,99789.13
2022-07-26T22:22:48.784Z,99787.00
2022-07-26T22:27:28.133Z,99791.28
2022-07-26T22:31:52.789Z,99791.94
2022-07-26T22:36:14.151Z,99794.38
2022-07-26T22:41:26.700Z,99786.78
2022-07-26T22:46:03.446Z,99779.16
2022-07-26T22:50:13.199Z,99773.59
2022-07-26T22:58:51.427Z,99783.53
2022-07-26T23:07:30.686Z,99774.59
2022-07-26T23:11:38.134Z,99777.38
2022-07-26T23:15:41.502Z,99777.16
2022-07-26T23:19:50.169Z,99785.47
2022-07-26T23:24:11.896Z,99789.66
2022-07-26T23:28:35.984Z,99782.66
2022-07-26T23:32:38.119Z,99791.88
2022-07-26T23:36:39.848Z,99790.97
